sensor_id;sensor_type;location;lat;lon;timestamp;pressure;altitude;pressure_sealevel;temperature;humidity
53858;BME280;39763;51.188;6.690;2023-02-13T00:00:18;103350.34;;;11.92;64.90
53858;BME280;39763;51.188;6.690;2023-02-13T00:01:49;103352.09;;;11.88;64.46
53858;BME280;39763;51.188;6.690;2023-02-13T00:03:21;103353.84;;;11.89;64.73
53858;BME280;39763;51.188;6.690;2023-02-13T00:04:52;103356.47;;;11.88;65.19
53858;BME280;39763;51.188;6.690;2023-02-13T00:06:24;103355.59;;;11.90;64.85
53858;BME280;39763;51.188;6.690;2023-02-13T00:07:55;103351.22;;;11.91;64.71
53858;BME280;39763;51.188;6.690;2023-02-13T00:09:29;103352.97;;;11.87;64.90
53858;BME280;39763;51.188;6.690;2023-02-13T00:11:00;103347.72;;;11.86;65.03
53858;BME280;39763;51.188;6.690;2023-02-13T00:12:32;103355.59;;;11.87;64.57
53858;BME280;39763;51.188;6.690;2023-02-13T00:14:03;103351.22;;;11.86;65.20
53858;BME280;39763;51.188;6.690;2023-02-13T00:15:35;103352.97;;;11.83;65.35
53858;BME280;39763;51.188;6.690;2023-02-13T00:17:07;103352.94;;;11.80;65.35
53858;BME280;39763;51.188;6.690;2023-02-13T00:18:38;103351.13;;;11.74;65.35
53858;BME280;39763;51.188;6.690;2023-02-13T00:20:10;103352.00;;;11.75;65.22
53858;BME280;39763;51.188;6.690;2023-02-13T00:21:42;103346.72;;;11.73;65.56
53858;BME280;39763;51.188;6.690;2023-02-13T00:23:13;103343.22;;;11.68;65.69
53858;BME280;39763;51.188;6.690;2023-02-13T00:24:46;103335.34;;;11.74;65.88
53858;BME280;39763;51.188;6.690;2023-02-13T00:26:18;103337.97;;;11.74;65.19
53858;BME280;39763;51.188;6.690;2023-02-13T00:27:50;103329.22;;;11.72;65.22
53858;BME280;39763;51.188;6.690;2023-02-13T00:29:25;103340.59;;;11.70;65.18
53858;BME280;39763;51.188;6.690;2023-02-13T00:31:01;103337.94;;;11.66;65.50
53858;BME280;39763;51.188;6.690;2023-02-13T00:32:32;103330.94;;;11.67;65.49
53858;BME280;39763;51.188;6.690;2023-02-13T00:34:04;103326.53;;;11.66;65.38
53858;BME280;39763;51.188;6.690;2023-02-13T00:35:36;103322.16;;;11.65;65.78
53858;BME280;39763;51.188;6.690;2023-02-13T00:37:08;103326.50;;;11.58;65.58
53858;BME280;39763;51.188;6.690;2023-02-13T00:38:40;103328.25;;;11.59;65.95
53858;BME280;39763;51.188;6.690;2023-02-13T00:40:13;103319.50;;;11.57;65.43
53858;BME280;39763;51.188;6.690;2023-02-13T00:41:44;103317.75;;;11.56;65.37
53858;BME280;39763;51.188;6.690;2023-02-13T00:43:16;103319.50;;;11.56;65.47
53858;BME280;39763;51.188;6.690;2023-02-13T00:44:49;103317.72;;;11.53;65.78
53858;BME280;39763;51.188;6.690;2023-02-13T00:46:20;103322.13;;;11.56;65.37
53858;BME280;39763;51.188;6.690;2023-02-13T00:47:52;103319.47;;;11.54;65.80
53858;BME280;39763;51.188;6.690;2023-02-13T00:49:24;103325.63;;;11.58;65.95
53858;BME280;39763;51.188;6.690;2023-02-13T00:50:55;103315.06;;;11.52;66.14
53858;BME280;39763;51.188;6.690;2023-02-13T00:52:27;103315.97;;;11.52;66.28
53858;BME280;39763;51.188;6.690;2023-02-13T00:53:59;103315.06;;;11.49;66.51
53858;BME280;39763;51.188;6.690;2023-02-13T00:55:32;103321.19;;;11.46;66.36
53858;BME280;39763;51.188;6.690;2023-02-13T00:57:05;103319.44;;;11.42;66.25
53858;BME280;39763;51.188;6.690;2023-02-13T00:58:38;103314.16;;;11.44;66.79
53858;BME280;39763;51.188;6.690;2023-02-13T01:00:10;103317.66;;;11.44;66.68
53858;BME280;39763;51.188;6.690;2023-02-13T01:01:44;103322.03;;;11.44;66.65
53858;BME280;39763;51.188;6.690;2023-02-13T01:03:17;103322.94;;;11.46;66.38
53858;BME280;39763;51.188;6.690;2023-02-13T01:04:49;103321.16;;;11.43;66.86
53858;BME280;39763;51.188;6.690;2023-02-13T01:06:22;103322.03;;;11.44;66.42
53858;BME280;39763;51.188;6.690;2023-02-13T01:07:53;103320.31;;;11.46;66.53
53858;BME280;39763;51.188;6.690;2023-02-13T01:09:25;103318.56;;;11.48;66.74
53858;BME280;39763;51.188;6.690;2023-02-13T01:10:57;103323.81;;;11.48;66.25
53858;BME280;39763;51.188;6.690;2023-02-13T01:12:30;103316.81;;;11.47;66.39
53858;BME280;39763;51.188;6.690;2023-02-13T01:14:02;103322.06;;;11.47;66.42
53858;BME280;39763;51.188;6.690;2023-02-13T01:15:33;103315.91;;;11.45;66.83
53858;BME280;39763;51.188;6.690;2023-02-13T01:17:05;103316.81;;;11.47;66.38
53858;BME280;39763;51.188;6.690;2023-02-13T01:18:37;103319.41;;;11.45;67.11
53858;BME280;39763;51.188;6.690;2023-02-13T01:20:09;103317.66;;;11.46;66.42
53858;BME280;39763;51.188;6.690;2023-02-13T01:21:41;103319.41;;;11.44;66.47
53858;BME280;39763;51.188;6.690;2023-02-13T01:23:13;103315.03;;;11.41;66.44
53858;BME280;39763;51.188;6.690;2023-02-13T01:24:44;103317.69;;;11.41;66.96
53858;BME280;39763;51.188;6.690;2023-02-13T01:26:18;103315.91;;;11.40;66.99
53858;BME280;39763;51.188;6.690;2023-02-13T01:27:53;103314.16;;;11.39;66.81
53858;BME280;39763;51.188;6.690;2023-02-13T01:29:24;103314.13;;;11.36;66.79
53858;BME280;39763;51.188;6.690;2023-02-13T01:30:56;103311.50;;;11.36;66.74
53858;BME280;39763;51.188;6.690;2023-02-13T01:32:28;103309.72;;;11.35;66.77
53858;BME280;39763;51.188;6.690;2023-02-13T01:34:00;103308.88;;;11.36;67.19
53858;BME280;39763;51.188;6.690;2023-02-13T01:35:31;103309.72;;;11.32;67.19
53858;BME280;39763;51.188;6.690;2023-02-13T01:37:03;103312.34;;;11.32;66.83
53858;BME280;39763;51.188;6.690;2023-02-13T01:38:34;103307.94;;;11.31;66.94
53858;BME280;39763;51.188;6.690;2023-02-13T01:40:07;103310.59;;;11.31;67.07
53858;BME280;39763;51.188;6.690;2023-02-13T01:41:40;103308.81;;;11.30;67.30
53858;BME280;39763;51.188;6.690;2023-02-13T01:43:11;103315.81;;;11.28;67.22
53858;BME280;39763;51.188;6.690;2023-02-13T01:44:47;103311.44;;;11.22;67.00
53858;BME280;39763;51.188;6.690;2023-02-13T01:46:23;103307.91;;;11.22;67.67
53858;BME280;39763;51.188;6.690;2023-02-13T01:47:57;103303.53;;;11.21;67.44
53858;BME280;39763;51.188;6.690;2023-02-13T01:49:29;103299.16;;;11.23;67.44
53858;BME280;39763;51.188;6.690;2023-02-13T01:51:01;103300.00;;;11.20;67.57
53858;BME280;39763;51.188;6.690;2023-02-13T01:52:35;103305.25;;;11.19;67.65
53858;BME280;39763;51.188;6.690;2023-02-13T01:54:09;103302.63;;;11.17;67.61
53858;BME280;39763;51.188;6.690;2023-02-13T01:55:44;103292.97;;;11.18;67.88
53858;BME280;39763;51.188;6.690;2023-02-13T01:57:19;103299.13;;;11.18;67.44
53858;BME280;39763;51.188;6.690;2023-02-13T01:58:54;103303.50;;;11.18;67.83
53858;BME280;39763;51.188;6.690;2023-02-13T02:00:27;103303.53;;;11.21;67.65
53858;BME280;39763;51.188;6.690;2023-02-13T02:01:59;103306.16;;;11.21;67.69
53858;BME280;39763;51.188;6.690;2023-02-13T02:03:32;103291.22;;;11.17;67.54
53858;BME280;39763;51.188;6.690;2023-02-13T02:05:10;103293.88;;;11.18;67.16
53858;BME280;39763;51.188;6.690;2023-02-13T02:06:43;103305.25;;;11.16;67.36
53858;BME280;39763;51.188;6.690;2023-02-13T02:08:24;103300.84;;;11.13;67.57
53858;BME280;39763;51.188;6.690;2023-02-13T02:09:57;103309.63;;;11.15;67.24
53858;BME280;39763;51.188;6.690;2023-02-13T02:11:38;103299.09;;;11.09;67.29
53858;BME280;39763;51.188;6.690;2023-02-13T02:13:16;103302.59;;;11.11;67.89
53858;BME280;39763;51.188;6.690;2023-02-13T02:14:51;103308.75;;;11.12;67.58
53858;BME280;39763;51.188;6.690;2023-02-13T02:16:25;103302.59;;;11.08;67.65
53858;BME280;39763;51.188;6.690;2023-02-13T02:17:57;103313.09;;;11.08;67.87
53858;BME280;39763;51.188;6.690;2023-02-13T02:19:31;103312.22;;;11.08;67.67
53858;BME280;39763;51.188;6.690;2023-02-13T02:21:21;103308.72;;;11.07;67.67
53858;BME280;39763;51.188;6.690;2023-02-13T02:23:13;103300.81;;;11.06;67.82
53858;BME280;39763;51.188;6.690;2023-02-13T02:25:00;103299.03;;;11.03;67.78
53858;BME280;39763;51.188;6.690;2023-02-13T02:26:40;103303.41;;;10.98;67.92
53858;BME280;39763;51.188;6.690;2023-02-13T02:28:23;103306.88;;;10.99;68.23
53858;BME280;39763;51.188;6.690;2023-02-13T02:30:24;103299.88;;;10.96;68.23
53858;BME280;39763;51.188;6.690;2023-02-13T02:32:11;103306.03;;;11.03;68.21
53858;BME280;39763;51.188;6.690;2023-02-13T02:33:47;103309.56;;;11.05;68.00
53858;BME280;39763;51.188;6.690;2023-02-13T02:35:23;103309.56;;;11.05;67.58
53858;BME280;39763;51.188;6.690;2023-02-13T02:37:01;103312.16;;;11.02;67.90
53858;BME280;39763;51.188;6.690;2023-02-13T02:38:39;103303.38;;;11.00;68.09
53858;BME280;39763;51.188;6.690;2023-02-13T02:40:18;103300.78;;;10.98;68.29
53858;BME280;39763;51.188;6.690;2023-02-13T02:41:58;103298.13;;;11.00;68.04
53858;BME280;39763;51.188;6.690;2023-02-13T02:43:37;103306.88;;;10.99;68.18
53858;BME280;39763;51.188;6.690;2023-02-13T02:45:14;103300.75;;;10.97;68.06
53858;BME280;39763;51.188;6.690;2023-02-13T02:46:55;103303.38;;;10.95;68.27
53858;BME280;39763;51.188;6.690;2023-02-13T02:48:49;103294.63;;;10.98;68.41
53858;BME280;39763;51.188;6.690;2023-02-13T02:50:45;103299.88;;;10.94;68.20
53858;BME280;39763;51.188;6.690;2023-02-13T02:52:21;103302.50;;;10.93;68.13
53858;BME280;39763;51.188;6.690;2023-02-13T02:54:01;103291.97;;;10.91;68.57
53858;BME280;39763;51.188;6.690;2023-02-13T02:55:35;103296.31;;;10.88;68.50
53858;BME280;39763;51.188;6.690;2023-02-13T02:57:10;103299.78;;;10.85;68.74
53858;BME280;39763;51.188;6.690;2023-02-13T02:58:45;103295.41;;;10.83;68.46
53858;BME280;39763;51.188;6.690;2023-02-13T03:00:38;103288.41;;;10.85;68.71
53858;BME280;39763;51.188;6.690;2023-02-13T03:02:31;103301.56;;;10.86;68.62
53858;BME280;39763;51.188;6.690;2023-02-13T03:04:24;103298.91;;;10.83;68.59
53858;BME280;39763;51.188;6.690;2023-02-13T03:06:15;103302.41;;;10.84;68.65
53858;BME280;39763;51.188;6.690;2023-02-13T03:07:50;103295.41;;;10.81;68.92
53858;BME280;39763;51.188;6.690;2023-02-13T03:09:22;103312.03;;;10.80;69.64
53858;BME280;39763;51.188;6.690;2023-02-13T03:11:13;103304.19;;;10.82;68.91
53858;BME280;39763;51.188;6.690;2023-02-13T03:13:04;103304.16;;;10.83;68.83
53858;BME280;39763;51.188;6.690;2023-02-13T03:14:52;103305.06;;;10.82;68.79
53858;BME280;39763;51.188;6.690;2023-02-13T03:16:24;103303.28;;;10.84;68.76
53858;BME280;39763;51.188;6.690;2023-02-13T03:18:14;103298.03;;;10.86;68.81
53858;BME280;39763;51.188;6.690;2023-02-13T03:20:09;103297.16;;;10.85;68.88
53858;BME280;39763;51.188;6.690;2023-02-13T03:22:04;103295.44;;;10.87;68.85
53858;BME280;39763;51.188;6.690;2023-02-13T03:23:53;103303.28;;;10.84;68.97
53858;BME280;39763;51.188;6.690;2023-02-13T03:25:28;103306.78;;;10.83;68.83
53858;BME280;39763;51.188;6.690;2023-02-13T03:27:02;103294.53;;;10.82;69.22
53858;BME280;39763;51.188;6.690;2023-02-13T03:28:38;103301.53;;;10.83;69.12
53858;BME280;39763;51.188;6.690;2023-02-13T03:30:33;103297.16;;;10.81;69.21
53858;BME280;39763;51.188;6.690;2023-02-13T03:32:07;103299.75;;;10.78;69.02
53858;BME280;39763;51.188;6.690;2023-02-13T03:33:43;103297.97;;;10.75;69.16
53858;BME280;39763;51.188;6.690;2023-02-13T03:35:24;103294.50;;;10.78;69.18
53858;BME280;39763;51.188;6.690;2023-02-13T03:37:17;103289.22;;;10.76;69.12
53858;BME280;39763;51.188;6.690;2023-02-13T03:39:10;103290.94;;;10.73;69.00
53858;BME280;39763;51.188;6.690;2023-02-13T03:40:46;103294.47;;;10.73;69.08
53858;BME280;39763;51.188;6.690;2023-02-13T03:42:39;103287.41;;;10.66;69.29
53858;BME280;39763;51.188;6.690;2023-02-13T03:44:14;103288.25;;;10.64;69.53
53858;BME280;39763;51.188;6.690;2023-02-13T03:45:49;103293.50;;;10.62;69.24
53858;BME280;39763;51.188;6.690;2023-02-13T03:47:23;103294.31;;;10.56;69.28
53858;BME280;39763;51.188;6.690;2023-02-13T03:48:54;103289.06;;;10.55;69.67
53858;BME280;39763;51.188;6.690;2023-02-13T03:50:47;103296.94;;;10.50;69.94
53858;BME280;39763;51.188;6.690;2023-02-13T03:52:21;103296.94;;;10.50;69.89
53858;BME280;39763;51.188;6.690;2023-02-13T03:53:55;103296.91;;;10.49;69.48
53858;BME280;39763;51.188;6.690;2023-02-13T03:55:30;103297.75;;;10.45;70.14
53858;BME280;39763;51.188;6.690;2023-02-13T03:57:21;103290.69;;;10.38;70.21
53858;BME280;39763;51.188;6.690;2023-02-13T03:59:16;103295.91;;;10.35;70.16
53858;BME280;39763;51.188;6.690;2023-02-13T04:00:50;103297.66;;;10.34;70.32
53858;BME280;39763;51.188;6.690;2023-02-13T04:02:23;103297.63;;;10.31;70.50
53858;BME280;39763;51.188;6.690;2023-02-13T04:03:57;103300.22;;;10.28;70.41
53858;BME280;39763;51.188;6.690;2023-02-13T04:05:31;103293.19;;;10.27;70.68
53858;BME280;39763;51.188;6.690;2023-02-13T04:07:09;103307.22;;;10.28;70.52
53858;BME280;39763;51.188;6.690;2023-02-13T04:08:42;103302.81;;;10.23;70.80
53858;BME280;39763;51.188;6.690;2023-02-13T04:10:14;103292.31;;;10.22;70.92
53858;BME280;39763;51.188;6.690;2023-02-13T04:11:48;103296.63;;;10.18;70.78
53858;BME280;39763;51.188;6.690;2023-02-13T04:13:25;103301.84;;;10.17;70.75
53858;BME280;39763;51.188;6.690;2023-02-13T04:15:03;103297.44;;;10.16;71.08
53858;BME280;39763;51.188;6.690;2023-02-13T04:16:37;103293.06;;;10.15;71.09
53858;BME280;39763;51.188;6.690;2023-02-13T04:18:11;103301.78;;;10.12;70.86
53858;BME280;39763;51.188;6.690;2023-02-13T04:19:44;103307.00;;;10.09;70.99
53858;BME280;39763;51.188;6.690;2023-02-13T04:21:16;103296.50;;;10.06;71.00
53858;BME280;39763;51.188;6.690;2023-02-13T04:22:49;103302.59;;;10.05;71.05
53858;BME280;39763;51.188;6.690;2023-02-13T04:24:21;103304.34;;;10.05;70.97
53858;BME280;39763;51.188;6.690;2023-02-13T04:25:53;103301.69;;;10.02;71.54
53858;BME280;39763;51.188;6.690;2023-02-13T04:27:26;103303.47;;;10.04;71.19
53858;BME280;39763;51.188;6.690;2023-02-13T04:28:58;103291.19;;;10.02;71.23
53858;BME280;39763;51.188;6.690;2023-02-13T04:30:29;103299.94;;;10.02;71.05
53858;BME280;39763;51.188;6.690;2023-02-13T04:32:01;103295.56;;;10.01;71.62
53858;BME280;39763;51.188;6.690;2023-02-13T04:33:33;103298.16;;;10.00;71.53
53858;BME280;39763;51.188;6.690;2023-02-13T04:35:04;103296.41;;;9.99;71.51
53858;BME280;39763;51.188;6.690;2023-02-13T04:36:36;103307.75;;;9.96;71.15
53858;BME280;39763;51.188;6.690;2023-02-13T04:38:09;103308.66;;;10.00;71.42
53858;BME280;39763;51.188;6.690;2023-02-13T04:39:40;103306.00;;;9.98;71.30
53858;BME280;39763;51.188;6.690;2023-02-13T04:41:12;103300.72;;;9.95;71.22
53858;BME280;39763;51.188;6.690;2023-02-13T04:42:46;103303.34;;;9.92;71.49
53858;BME280;39763;51.188;6.690;2023-02-13T04:44:18;103306.00;;;9.94;71.58
53858;BME280;39763;51.188;6.690;2023-02-13T04:45:49;103305.09;;;9.93;71.60
53858;BME280;39763;51.188;6.690;2023-02-13T04:47:21;103305.03;;;9.88;71.77
53858;BME280;39763;51.188;6.690;2023-02-13T04:48:52;103311.13;;;9.86;71.76
53858;BME280;39763;51.188;6.690;2023-02-13T04:50:24;103304.13;;;9.85;71.79
53858;BME280;39763;51.188;6.690;2023-02-13T04:51:55;103300.59;;;9.83;72.15
53858;BME280;39763;51.188;6.690;2023-02-13T04:53:28;103297.97;;;9.83;72.08
53858;BME280;39763;51.188;6.690;2023-02-13T04:55:00;103301.53;;;9.86;71.99
53858;BME280;39763;51.188;6.690;2023-02-13T04:56:31;103300.69;;;9.89;71.73
53858;BME280;39763;51.188;6.690;2023-02-13T04:58:03;103290.13;;;9.86;71.76
53858;BME280;39763;51.188;6.690;2023-02-13T04:59:34;103294.50;;;9.84;71.66
53858;BME280;39763;51.188;6.690;2023-02-13T05:01:10;103296.22;;;9.82;71.97
53858;BME280;39763;51.188;6.690;2023-02-13T05:02:41;103295.31;;;9.77;72.01
53858;BME280;39763;51.188;6.690;2023-02-13T05:04:13;103290.91;;;9.74;72.22
53858;BME280;39763;51.188;6.690;2023-02-13T05:05:47;103291.75;;;9.73;71.95
53858;BME280;39763;51.188;6.690;2023-02-13T05:07:18;103289.13;;;9.72;72.43
53858;BME280;39763;51.188;6.690;2023-02-13T05:08:51;103296.94;;;9.69;72.58
53858;BME280;39763;51.188;6.690;2023-02-13T05:10:23;103293.47;;;9.70;72.30
53858;BME280;39763;51.188;6.690;2023-02-13T05:11:54;103296.97;;;9.72;72.56
53858;BME280;39763;51.188;6.690;2023-02-13T05:13:26;103296.97;;;9.72;72.62
53858;BME280;39763;51.188;6.690;2023-02-13T05:14:57;103296.97;;;9.70;72.45
53858;BME280;39763;51.188;6.690;2023-02-13T05:16:29;103299.59;;;9.70;72.31
53858;BME280;39763;51.188;6.690;2023-02-13T05:18:00;103303.13;;;9.74;72.22
53858;BME280;39763;51.188;6.690;2023-02-13T05:19:32;103297.88;;;9.74;72.44
53858;BME280;39763;51.188;6.690;2023-02-13T05:21:03;103298.75;;;9.73;72.37
53858;BME280;39763;51.188;6.690;2023-02-13T05:22:53;103303.09;;;9.71;72.12
53858;BME280;39763;51.188;6.690;2023-02-13T05:24:45;103303.06;;;9.68;72.37
53858;BME280;39763;51.188;6.690;2023-02-13T05:26:16;103298.72;;;9.70;72.44
53858;BME280;39763;51.188;6.690;2023-02-13T05:27:48;103292.59;;;9.71;72.38
53858;BME280;39763;51.188;6.690;2023-02-13T05:29:19;103302.22;;;9.70;72.10
53858;BME280;39763;51.188;6.690;2023-02-13T05:30:53;103294.28;;;9.67;72.17
53858;BME280;39763;51.188;6.690;2023-02-13T05:32:24;103297.75;;;9.65;72.42
53858;BME280;39763;51.188;6.690;2023-02-13T05:33:56;103292.53;;;9.66;72.71
53858;BME280;39763;51.188;6.690;2023-02-13T05:35:27;103287.31;;;9.68;72.66
53858;BME280;39763;51.188;6.690;2023-02-13T05:36:59;103290.00;;;9.72;72.22
53858;BME280;39763;51.188;6.690;2023-02-13T05:38:30;103294.41;;;9.76;71.99
53858;BME280;39763;51.188;6.690;2023-02-13T05:40:04;103295.31;;;9.78;71.94
53858;BME280;39763;51.188;6.690;2023-02-13T05:41:35;103299.72;;;9.82;71.96
53858;BME280;39763;51.188;6.690;2023-02-13T05:43:07;103301.53;;;9.86;71.65
53858;BME280;39763;51.188;6.690;2023-02-13T05:44:38;103291.91;;;9.87;71.63
53858;BME280;39763;51.188;6.690;2023-02-13T05:46:10;103296.25;;;9.85;71.54
53858;BME280;39763;51.188;6.690;2023-02-13T05:47:42;103290.09;;;9.83;71.35
53858;BME280;39763;51.188;6.690;2023-02-13T05:49:13;103290.94;;;9.80;71.91
53858;BME280;39763;51.188;6.690;2023-02-13T05:50:45;103307.56;;;9.79;72.03
53858;BME280;39763;51.188;6.690;2023-02-13T05:52:17;103299.69;;;9.79;71.58
53858;BME280;39763;51.188;6.690;2023-02-13T05:53:48;103292.72;;;9.81;71.36
53858;BME280;39763;51.188;6.690;2023-02-13T05:55:21;103301.44;;;9.77;71.86
53858;BME280;39763;51.188;6.690;2023-02-13T05:56:53;103297.06;;;9.78;72.10
53858;BME280;39763;51.188;6.690;2023-02-13T05:58:24;103299.72;;;9.82;72.12
53858;BME280;39763;51.188;6.690;2023-02-13T05:59:56;103292.72;;;9.83;71.75
53858;BME280;39763;51.188;6.690;2023-02-13T06:01:27;103297.06;;;9.79;71.70
53858;BME280;39763;51.188;6.690;2023-02-13T06:02:59;103294.44;;;9.78;71.47
53858;BME280;39763;51.188;6.690;2023-02-13T06:04:30;103290.06;;;9.80;71.30
53858;BME280;39763;51.188;6.690;2023-02-13T06:06:02;103287.44;;;9.78;71.41
53858;BME280;39763;51.188;6.690;2023-02-13T06:07:34;103283.91;;;9.75;71.58
53858;BME280;39763;51.188;6.690;2023-02-13T06:09:05;103292.63;;;9.72;71.91
53858;BME280;39763;51.188;6.690;2023-02-13T06:10:39;103293.53;;;9.76;71.61
53858;BME280;39763;51.188;6.690;2023-02-13T06:12:10;103283.91;;;9.75;71.79
53858;BME280;39763;51.188;6.690;2023-02-13T06:13:42;103292.56;;;9.69;71.35
53858;BME280;39763;51.188;6.690;2023-02-13T06:15:14;103285.59;;;9.70;71.95
53858;BME280;39763;51.188;6.690;2023-02-13T06:16:45;103288.16;;;9.67;71.52
53858;BME280;39763;51.188;6.690;2023-02-13T06:18:17;103280.28;;;9.64;72.27
53858;BME280;39763;51.188;6.690;2023-02-13T06:19:49;103274.97;;;9.59;71.91
53858;BME280;39763;51.188;6.690;2023-02-13T06:21:20;103282.88;;;9.61;71.75
53858;BME280;39763;51.188;6.690;2023-02-13T06:22:53;103278.44;;;9.57;72.45
53858;BME280;39763;51.188;6.690;2023-02-13T06:24:25;103287.13;;;9.52;72.52
53858;BME280;39763;51.188;6.690;2023-02-13T06:26:01;103286.25;;;9.52;72.51
53858;BME280;39763;51.188;6.690;2023-02-13T06:27:33;103279.25;;;9.49;72.22
53858;BME280;39763;51.188;6.690;2023-02-13T06:29:05;103281.84;;;9.48;72.11
53858;BME280;39763;51.188;6.690;2023-02-13T06:30:37;103279.25;;;9.49;72.12
53858;BME280;39763;51.188;6.690;2023-02-13T06:32:08;103281.84;;;9.48;72.00
53858;BME280;39763;51.188;6.690;2023-02-13T06:33:40;103282.72;;;9.48;72.65
53858;BME280;39763;51.188;6.690;2023-02-13T06:35:11;103279.19;;;9.46;72.29
53858;BME280;39763;51.188;6.690;2023-02-13T06:36:44;103286.16;;;9.44;73.11
53858;BME280;39763;51.188;6.690;2023-02-13T06:38:15;103283.53;;;9.44;72.48
53858;BME280;39763;51.188;6.690;2023-02-13T06:39:49;103284.41;;;9.43;72.90
53858;BME280;39763;51.188;6.690;2023-02-13T06:41:22;103280.06;;;9.45;72.33
53858;BME280;39763;51.188;6.690;2023-02-13T06:42:54;103283.53;;;9.43;72.35
53858;BME280;39763;51.188;6.690;2023-02-13T06:44:25;103287.03;;;9.43;72.33
53858;BME280;39763;51.188;6.690;2023-02-13T06:45:57;103293.09;;;9.39;72.81
53858;BME280;39763;51.188;6.690;2023-02-13T06:47:29;103281.72;;;9.40;72.68
53858;BME280;39763;51.188;6.690;2023-02-13T06:49:00;103275.63;;;9.41;72.29
53858;BME280;39763;51.188;6.690;2023-02-13T06:50:32;103279.03;;;9.36;73.02
53858;BME280;39763;51.188;6.690;2023-02-13T06:52:04;103282.56;;;9.38;72.50
53858;BME280;39763;51.188;6.690;2023-02-13T06:53:36;103279.06;;;9.37;72.88
53858;BME280;39763;51.188;6.690;2023-02-13T06:55:07;103279.06;;;9.37;72.97
53858;BME280;39763;51.188;6.690;2023-02-13T06:56:40;103272.94;;;9.37;73.11
53858;BME280;39763;51.188;6.690;2023-02-13T06:58:12;103285.19;;;9.38;72.49
53858;BME280;39763;51.188;6.690;2023-02-13T06:59:43;103280.81;;;9.37;73.17
53858;BME280;39763;51.188;6.690;2023-02-13T07:01:15;103268.59;;;9.39;72.58
53858;BME280;39763;51.188;6.690;2023-02-13T07:02:46;103282.56;;;9.35;73.08
53858;BME280;39763;51.188;6.690;2023-02-13T07:04:18;103284.31;;;9.34;73.22
53858;BME280;39763;51.188;6.690;2023-02-13T07:05:50;103280.78;;;9.32;72.54
53858;BME280;39763;51.188;6.690;2023-02-13T07:07:23;103283.34;;;9.29;73.23
53858;BME280;39763;51.188;6.690;2023-02-13T07:08:55;103283.34;;;9.29;72.94
53858;BME280;39763;51.188;6.690;2023-02-13T07:10:26;103283.31;;;9.28;72.69
53858;BME280;39763;51.188;6.690;2023-02-13T07:11:59;103278.94;;;9.27;72.82
53858;BME280;39763;51.188;6.690;2023-02-13T07:13:32;103279.78;;;9.26;72.87
53858;BME280;39763;51.188;6.690;2023-02-13T07:15:04;103285.06;;;9.27;73.50
53858;BME280;39763;51.188;6.690;2023-02-13T07:16:36;103290.28;;;9.26;72.83
53858;BME280;39763;51.188;6.690;2023-02-13T07:18:07;103289.41;;;9.25;73.14
53858;BME280;39763;51.188;6.690;2023-02-13T07:19:39;103297.25;;;9.24;72.90
53858;BME280;39763;51.188;6.690;2023-02-13T07:21:10;103285.03;;;9.24;73.05
53858;BME280;39763;51.188;6.690;2023-02-13T07:22:42;103290.28;;;9.26;73.24
53858;BME280;39763;51.188;6.690;2023-02-13T07:24:13;103286.75;;;9.24;73.14
53858;BME280;39763;51.188;6.690;2023-02-13T07:25:45;103291.16;;;9.26;73.52
53858;BME280;39763;51.188;6.690;2023-02-13T07:27:18;103285.94;;;9.26;72.65
53858;BME280;39763;51.188;6.690;2023-02-13T07:28:49;103291.16;;;9.26;72.86
53858;BME280;39763;51.188;6.690;2023-02-13T07:30:36;103286.75;;;9.24;73.12
53858;BME280;39763;51.188;6.690;2023-02-13T07:32:07;103290.25;;;9.24;72.81
53858;BME280;39763;51.188;6.690;2023-02-13T07:33:39;103291.13;;;9.23;73.03
53858;BME280;39763;51.188;6.690;2023-02-13T07:35:11;103292.03;;;9.25;73.42
53858;BME280;39763;51.188;6.690;2023-02-13T07:36:42;103292.06;;;9.28;73.20
53858;BME280;39763;51.188;6.690;2023-02-13T07:38:14;103292.06;;;9.28;72.92
53858;BME280;39763;51.188;6.690;2023-02-13T07:39:46;103292.06;;;9.28;73.22
53858;BME280;39763;51.188;6.690;2023-02-13T07:41:18;103295.56;;;9.27;73.28
53858;BME280;39763;51.188;6.690;2023-02-13T07:42:51;103293.88;;;9.31;72.76
53858;BME280;39763;51.188;6.690;2023-02-13T07:44:23;103293.88;;;9.32;72.60
53858;BME280;39763;51.188;6.690;2023-02-13T07:45:56;103297.38;;;9.33;73.42
53858;BME280;39763;51.188;6.690;2023-02-13T07:47:29;103299.13;;;9.32;72.77
53858;BME280;39763;51.188;6.690;2023-02-13T07:49:00;103298.28;;;9.33;72.65
53858;BME280;39763;51.188;6.690;2023-02-13T07:50:32;103301.78;;;9.37;72.96
53858;BME280;39763;51.188;6.690;2023-02-13T07:52:03;103306.19;;;9.39;72.78
53858;BME280;39763;51.188;6.690;2023-02-13T07:53:35;103301.88;;;9.43;72.45
53858;BME280;39763;51.188;6.690;2023-02-13T07:55:07;103308.06;;;9.46;72.14
53858;BME280;39763;51.188;6.690;2023-02-13T07:56:39;103298.44;;;9.45;73.04
53858;BME280;39763;51.188;6.690;2023-02-13T07:58:11;103311.63;;;9.53;72.47
53858;BME280;39763;51.188;6.690;2023-02-13T07:59:44;103303.78;;;9.56;71.92
53858;BME280;39763;51.188;6.690;2023-02-13T08:01:16;103305.56;;;9.59;71.88
53858;BME280;39763;51.188;6.690;2023-02-13T08:02:47;103304.75;;;9.61;72.32
53858;BME280;39763;51.188;6.690;2023-02-13T08:04:19;103306.53;;;9.64;72.18
53858;BME280;39763;51.188;6.690;2023-02-13T08:05:50;103304.81;;;9.69;71.56
53858;BME280;39763;51.188;6.690;2023-02-13T08:07:22;103308.31;;;9.69;71.43
53858;BME280;39763;51.188;6.690;2023-02-13T08:08:54;103295.22;;;9.71;71.76
53858;BME280;39763;51.188;6.690;2023-02-13T08:10:45;103307.56;;;9.78;71.31
53858;BME280;39763;51.188;6.690;2023-02-13T08:12:35;103311.94;;;9.79;71.04
53858;BME280;39763;51.188;6.690;2023-02-13T08:14:08;103295.31;;;9.80;70.92
53858;BME280;39763;51.188;6.690;2023-02-13T08:15:40;103313.75;;;9.84;71.38
53858;BME280;39763;51.188;6.690;2023-02-13T08:17:12;103304.13;;;9.85;71.06